Terminal Aerodrome Forecast
Issued by NWS

Home | Current Version | Previous Version | Text Only | Print | Product List | Glossary On
Versions: 1 2 3 4 5 6 7 8 9 10 11 12 13 14 15 16 17 18 19 20 21 22 23 24 25 26 27 28 29 30 31 32
709
FTUS41 KOKX 181740
TAFHPN
TAF
KHPN 181740Z 1818/1918 20010G16KT P6SM VCSH SCT050 BKN100
     FM182100 20016G25KT 6SM -SHRA BR SCT030 BKN050 OVC070
     FM190200 21010KT 6SM -SHRA BR SCT015 BKN025 OVC050
     FM190800 21022G32KT 3SM SHRA BR SCT007 BKN015 OVC035
     FM191100 24026G35KT 5SM -SHRA BR SCT008 BKN020
     FM191500 29028G37KT P6SM BKN030
      AMD NOT SKED=

USA.gov is the U.S. government's official web portal to all federal, state and local government web resources and services.